Time;durP1;ratioP1;P1;durP2;ratioP2;P2;SDS_P1;SDS_P2;PMS_P1;PMS_P2;Temp;Humidity;BMP_temperature;BMP_pressure;BME280_temperature;BME280_humidity;BME280_pressure;Samples;Min_cycle;Max_cycle;Signal;HPM_P1;HPM_P2
2022/03/11 00:00:45;;;;;;;6.3;4.9;;;;;;;1.13;63.90918;939.7318;;;;
2022/03/11 00:03:13;;;;;;;6.9;4.7;;;;;;;1;64.27051;939.7177;;;;
2022/03/11 00:05:36;;;;;;;6.4;4.6;;;;;;;0.98;64.33398;939.7813;;;;
2022/03/11 00:08:13;;;;;;;7.8;4.6;;;;;;;1.05;63.86621;939.7379;;;;
2022/03/11 00:10:51;;;;;;;6.8;4.4;;;;;;;1.02;63.82617;939.7134;;;;
2022/03/11 00:13:26;;;;;;;6.4;4.6;;;;;;;0.99;64.52441;939.7477;;;;
2022/03/11 00:15:57;;;;;;;7.3;4;;;;;;;1.03;63.83984;939.7078;;;;
2022/03/11 00:18:35;;;;;;;8.4;5.1;;;;;;;0.97;64.86914;939.7635;;;;
2022/03/11 00:21:13;;;;;;;7.1;5.1;;;;;;;1;63.92383;939.7553;;;;
2022/03/11 00:23:47;;;;;;;7;4.5;;;;;;;1.01;63.90332;939.7458;;;;
2022/03/11 00:26:27;;;;;;;7.3;3.9;;;;;;;0.96;63.98438;939.7164;;;;
2022/03/11 00:28:58;;;;;;;7.4;4.8;;;;;;;0.9;64.17871;939.805;;;;
2022/03/11 00:31:33;;;;;;;9.8;5.5;;;;;;;0.88;64.05176;939.7294;;;;
2022/03/11 00:34:09;;;;;;;8.3;5.6;;;;;;;0.91;63.6875;939.6005;;;;
2022/03/11 00:36:44;;;;;;;8.7;5.2;;;;;;;0.9;63.91016;939.736;;;;
2022/03/11 00:39:12;;;;;;;7.1;4.9;;;;;;;0.84;64.28027;939.7347;;;;
2022/03/11 00:41:43;;;;;;;6.9;4.9;;;;;;;0.83;64.5918;939.6495;;;;
2022/03/11 00:44:18;;;;;;;7.8;4.9;;;;;;;0.9;64.01074;939.7062;;;;
2022/03/11 00:46:51;;;;;;;6.3;4.9;;;;;;;0.84;63.84473;939.6836;;;;
2022/03/11 00:49:16;;;;;;;8;5.2;;;;;;;0.84;64.0127;939.6861;;;;
2022/03/11 00:51:50;;;;;;;9.2;5.6;;;;;;;0.82;64.19824;939.652;;;;
2022/03/11 00:54:15;;;;;;;9.6;5.4;;;;;;;0.83;64.07813;939.7296;;;;
2022/03/11 00:56:43;;;;;;;12.5;5.4;;;;;;;0.81;63.72754;939.6423;;;;
2022/03/11 00:59:08;;;;;;;6.9;4.9;;;;;;;0.72;64.05078;939.5922;;;;
2022/03/11 01:01:36;;;;;;;7.5;5.3;;;;;;;0.67;64.2207;939.6422;;;;
2022/03/11 01:04:01;;;;;;;8.5;5.3;;;;;;;0.64;64.43848;939.5817;;;;
2022/03/11 01:06:27;;;;;;;6.3;4.1;;;;;;;0.59;64.52051;939.5965;;;;
2022/03/11 01:08:52;;;;;;;6.7;4.2;;;;;;;0.56;64.8291;939.6085;;;;
2022/03/11 01:11:17;;;;;;;5.9;4.3;;;;;;;0.54;64.7373;939.5291;;;;
2022/03/11 01:13:43;;;;;;;8.3;4.5;;;;;;;0.65;64.50684;939.4428;;;;
2022/03/11 01:16:09;;;;;;;9.6;4.5;;;;;;;0.68;64.25391;939.4599;;;;
2022/03/11 01:18:35;;;;;;;6.2;4;;;;;;;0.71;63.79199;939.497;;;;
2022/03/11 01:21:00;;;;;;;7.5;4.5;;;;;;;0.68;63.73145;939.4971;;;;
2022/03/11 01:23:27;;;;;;;13.8;5.6;;;;;;;0.75;63.3623;939.3783;;;;
2022/03/11 01:25:53;;;;;;;7.9;4.3;;;;;;;0.72;63.71582;939.4364;;;;
2022/03/11 01:28:18;;;;;;;7.8;4.6;;;;;;;0.65;63.94922;939.3848;;;;
2022/03/11 01:30:43;;;;;;;5.6;4.2;;;;;;;0.56;64.25977;939.2841;;;;
2022/03/11 01:33:11;;;;;;;6.8;3.6;;;;;;;0.51;64.22949;939.1539;;;;
2022/03/11 01:35:37;;;;;;;4.8;3.4;;;;;;;0.47;64.19043;939.2312;;;;
2022/03/11 01:38:33;;;;;;;9;4.7;;;;;;;0.57;63.98145;939.311;;;;
2022/03/11 01:41:02;;;;;;;5.5;4;;;;;;;0.6;63.97559;939.2708;;;;
2022/03/11 01:43:29;;;;;;;6;3.7;;;;;;;0.56;63.8252;939.2772;;;;
2022/03/11 01:45:54;;;;;;;5.6;3.7;;;;;;;0.53;63.95215;939.2134;;;;
2022/03/11 01:48:22;;;;;;;6.4;3.8;;;;;;;0.49;64.1377;939.2578;;;;
2022/03/11 01:50:47;;;;;;;11.8;4.6;;;;;;;0.44;64.56445;939.1677;;;;
2022/03/11 01:53:15;;;;;;;8.7;4.2;;;;;;;0.34;65.07324;939.2025;;;;
2022/03/11 01:55:40;;;;;;;6.2;4.1;;;;;;;0.32;64.92578;939.1392;;;;
2022/03/11 01:58:08;;;;;;;7.4;4.3;;;;;;;0.24;65.02441;939.0253;;;;
2022/03/11 02:00:34;;;;;;;5.2;3.4;;;;;;;0.22;64.66504;939.1186;;;;
2022/03/11 02:03:01;;;;;;;5.5;3.7;;;;;;;0.32;64.20117;939.0731;;;;
2022/03/11 02:05:28;;;;;;;4.9;3.7;;;;;;;0.37;64.54199;939.1147;;;;
2022/03/11 02:07:58;;;;;;;5.1;3.5;;;;;;;0.41;64.40234;939.0535;;;;
2022/03/11 02:10:21;;;;;;;5.6;3.6;;;;;;;0.23;65.08984;939.0023;;;;
2022/03/11 02:12:49;;;;;;;5;3.7;;;;;;;0.23;64.81152;939.0477;;;;
2022/03/11 02:15:14;;;;;;;5.4;3.9;;;;;;;0.23;65.02441;939.0558;;;;
2022/03/11 02:17:39;;;;;;;7.6;4.4;;;;;;;0.17;65.43652;939.0647;;;;
2022/03/11 02:20:05;;;;;;;6.1;4;;;;;;;0.17;65.34766;939.0666;;;;
2022/03/11 02:22:36;;;;;;;7.3;4.2;;;;;;;0.26;64.94922;939.1384;;;;
2022/03/11 02:27:37;;;;;;;7.6;4.4;;;;;;;0.09;64.9668;939.1572;;;;
2022/03/11 02:30:06;;;;;;;6.8;4.2;;;;;;;0.11;65.06055;939.0078;;;;
2022/03/11 02:32:32;;;;;;;7.5;4.3;;;;;;;0.14;65.29883;939.0413;;;;
2022/03/11 02:35:02;;;;;;;7.9;4.4;;;;;;;0.06;65.52051;939.0366;;;;
2022/03/11 02:37:31;;;;;;;6;3.9;;;;;;;-0.02;65.37402;939.0676;;;;
2022/03/11 02:39:57;;;;;;;7.1;4.1;;;;;;;0.05;65.36133;939.0712;;;;
2022/03/11 02:42:24;;;;;;;6;4.6;;;;;;;0.06;65.14258;939.04;;;;
2022/03/11 02:44:50;;;;;;;5.7;3.5;;;;;;;0.09;64.84473;938.9903;;;;
2022/03/11 02:47:18;;;;;;;6.4;4.4;;;;;;;0.16;64.82324;939.0692;;;;
2022/03/11 02:49:43;;;;;;;10.2;4.3;;;;;;;0.19;64.68262;939.0767;;;;
2022/03/11 02:52:09;;;;;;;7.2;3.8;;;;;;;0.19;64.64941;939.0566;;;;
2022/03/11 02:54:34;;;;;;;5.1;3.4;;;;;;;0.24;64.22168;939.0115;;;;
2022/03/11 02:57:00;;;;;;;5.8;3.6;;;;;;;0.18;64.49121;939.0048;;;;
2022/03/11 02:59:25;;;;;;;6.8;4;;;;;;;0.12;65.08301;939.0051;;;;
2022/03/11 03:01:52;;;;;;;6.3;3.8;;;;;;;0.12;65.09375;939.0999;;;;
2022/03/11 03:04:17;;;;;;;6.8;3.9;;;;;;;-0.07;65.65625;939.1349;;;;
2022/03/11 03:06:43;;;;;;;7.2;3.9;;;;;;;-0.02;65.34082;939.0129;;;;
2022/03/11 03:09:08;;;;;;;8.3;3.9;;;;;;;-0.06;65.14453;939.1117;;;;
2022/03/11 03:14:54;;;;;;;6.9;4.1;;;;;;;0.04;65.42773;939.1001;;;;
2022/03/11 03:17:24;;;;;;;6.8;5.5;;;;;;;-0.04;65.53809;939.1473;;;;
2022/03/11 03:19:55;;;;;;;7.4;6.2;;;;;;;-0.11;65.75;939.0154;;;;
2022/03/11 03:22:24;;;;;;;6.3;4.6;;;;;;;-0.15;65.64355;939.1049;;;;
2022/03/11 03:25:08;;;;;;;6.7;4.3;;;;;;;-0.18;66.14063;939.0519;;;;
2022/03/11 03:27:32;;;;;;;6.9;4.4;;;;;;;-0.11;65.70508;938.9998;;;;
2022/03/11 03:29:59;;;;;;;6.8;4.2;;;;;;;-0.03;65.8291;939.0195;;;;
2022/03/11 03:32:24;;;;;;;14.4;5.7;;;;;;;-0.09;65.99902;939.0112;;;;
2022/03/11 03:34:52;;;;;;;8.7;4.3;;;;;;;-0.11;66.30664;938.935;;;;
2022/03/11 03:37:18;;;;;;;6.3;3.9;;;;;;;-0.12;65.65918;939.0203;;;;
2022/03/11 03:39:44;;;;;;;6.4;3.8;;;;;;;-0.2;65.96973;938.9746;;;;
2022/03/11 03:42:10;;;;;;;6.4;4.2;;;;;;;-0.29;66.58984;939.0145;;;;
2022/03/11 03:44:35;;;;;;;6.2;3.5;;;;;;;-0.28;65.81348;938.9355;;;;
2022/03/11 03:47:31;;;;;;;6.2;4;;;;;;;-0.27;65.85938;938.9494;;;;
2022/03/11 03:49:56;;;;;;;7.7;4.2;;;;;;;-0.3;66.04297;938.885;;;;
2022/03/11 03:52:21;;;;;;;7.5;3.9;;;;;;;-0.37;66.63281;938.9174;;;;
2022/03/11 03:54:47;;;;;;;5.1;3.7;;;;;;;-0.37;66.18848;938.8363;;;;
2022/03/11 03:57:12;;;;;;;10;4;;;;;;;-0.45;66.10938;938.8091;;;;
2022/03/11 03:59:39;;;;;;;5.2;3.6;;;;;;;-0.57;66.58984;938.824;;;;
2022/03/11 04:02:32;;;;;;;5.1;3.4;;;;;;;-0.64;66.9248;938.8494;;;;
2022/03/11 04:04:57;;;;;;;6.5;3.7;;;;;;;-0.62;66.84961;938.8198;;;;
2022/03/11 04:07:24;;;;;;;6.1;3.9;;;;;;;-0.67;67.04297;938.7744;;;;
2022/03/11 04:09:50;;;;;;;5.8;4;;;;;;;-0.57;66.97949;938.8131;;;;
2022/03/11 04:12:17;;;;;;;8.2;4.3;;;;;;;-0.52;66.35352;938.8329;;;;
2022/03/11 04:14:42;;;;;;;10.9;4.7;;;;;;;-0.54;66.24902;938.8576;;;;
2022/03/11 04:17:10;;;;;;;4.9;3.6;;;;;;;-0.49;65.89063;938.8495;;;;
2022/03/11 04:19:38;;;;;;;6.7;3.8;;;;;;;-0.45;65.88672;938.8631;;;;
2022/03/11 04:22:04;;;;;;;9.8;3.8;;;;;;;-0.44;65.97559;938.8675;;;;
2022/03/11 04:24:32;;;;;;;7.1;4.4;;;;;;;-0.48;66.2373;938.8412;;;;
2022/03/11 04:27:19;;;;;;;6.4;4.1;;;;;;;-0.51;67.25684;938.7484;;;;
2022/03/11 04:29:46;;;;;;;20.8;5.3;;;;;;;-0.48;66.42773;938.7774;;;;
2022/03/11 04:32:11;;;;;;;7;3.8;;;;;;;-0.51;66.2998;938.8365;;;;
2022/03/11 04:34:42;;;;;;;7.9;4.5;;;;;;;-0.53;66.27344;938.7361;;;;
2022/03/11 04:37:11;;;;;;;14.2;5.8;;;;;;;-0.63;67.2373;938.8378;;;;
2022/03/11 04:39:36;;;;;;;6.8;4.2;;;;;;;-0.57;66.79004;938.7719;;;;
2022/03/11 04:42:06;;;;;;;6.7;4.1;;;;;;;-0.56;66.16992;938.8192;;;;
2022/03/11 04:44:29;;;;;;;6.5;3.7;;;;;;;-0.54;65.86133;938.8265;;;;
2022/03/11 04:46:55;;;;;;;8.6;4.2;;;;;;;-0.48;65.78223;938.801;;;;
2022/03/11 04:49:20;;;;;;;17;6.4;;;;;;;-0.49;65.85742;938.7882;;;;
2022/03/11 04:51:46;;;;;;;13.9;6.8;;;;;;;-0.47;66.01563;938.7104;;;;
2022/03/11 04:54:11;;;;;;;13.6;7.9;;;;;;;-0.43;65.72266;938.7938;;;;
2022/03/11 04:56:36;;;;;;;15.3;7.7;;;;;;;-0.44;65.59863;938.7276;;;;
2022/03/11 04:59:23;;;;;;;16.7;8.8;;;;;;;-0.44;65.86621;938.7583;;;;
2022/03/11 05:01:54;;;;;;;11.5;6.8;;;;;;;-0.53;65.96484;938.709;;;;
2022/03/11 05:04:22;;;;;;;13.4;6.4;;;;;;;-0.59;66.39844;938.7849;;;;
2022/03/11 05:06:48;;;;;;;23.1;8;;;;;;;-0.66;66.27734;938.778;;;;
2022/03/11 05:09:14;;;;;;;18.5;5.8;;;;;;;-0.76;66.69531;938.6367;;;;
2022/03/11 05:11:39;;;;;;;8.1;4;;;;;;;-0.79;66.21094;938.6506;;;;
2022/03/11 05:14:07;;;;;;;9.1;6.3;;;;;;;-0.82;66.35156;938.6717;;;;
2022/03/11 05:16:37;;;;;;;9.4;6.3;;;;;;;-0.84;66.60254;938.6172;;;;
2022/03/11 05:19:09;;;;;;;11;5.6;;;;;;;-0.75;65.9834;938.6956;;;;
2022/03/11 05:21:37;;;;;;;9.5;5.1;;;;;;;-0.66;65.6748;938.694;;;;
2022/03/11 05:24:03;;;;;;;18.9;5.8;;;;;;;-0.61;65.77246;938.7631;;;;
2022/03/11 05:26:34;;;;;;;7.8;5.4;;;;;;;-0.64;65.90137;938.668;;;;
2022/03/11 05:29:03;;;;;;;14.2;6.8;;;;;;;-0.78;66.29004;938.7942;;;;
2022/03/11 05:31:34;;;;;;;13.6;7.6;;;;;;;-0.87;66.84277;938.7533;;;;
2022/03/11 05:34:03;;;;;;;13.1;6.1;;;;;;;-0.84;66.88086;938.7767;;;;
2022/03/11 05:36:29;;;;;;;11.4;5.6;;;;;;;-0.91;66.87109;938.8448;;;;
2022/03/11 05:39:55;;;;;;;7.1;4.1;;;;;;;-0.89;66.39551;938.7124;;;;
2022/03/11 05:42:25;;;;;;;25.9;6.2;;;;;;;-0.87;66.35352;938.7299;;;;
2022/03/11 05:44:50;;;;;;;11.1;4.6;;;;;;;-0.87;66.58691;938.8549;;;;
2022/03/11 05:47:17;;;;;;;12.2;6.4;;;;;;;-0.83;66.31641;938.8541;;;;
2022/03/11 05:49:45;;;;;;;13.3;6.5;;;;;;;-0.79;66.05566;938.7781;;;;
2022/03/11 05:52:11;;;;;;;18.9;7;;;;;;;-0.64;65.4668;938.9352;;;;
2022/03/11 05:54:38;;;;;;;25.4;8.8;;;;;;;-0.54;64.84766;938.8022;;;;
2022/03/11 05:57:03;;;;;;;13.1;7.9;;;;;;;-0.48;64.8125;938.8663;;;;
2022/03/11 05:59:32;;;;;;;11.3;6.1;;;;;;;-0.38;64.33887;938.8591;;;;
2022/03/11 06:01:56;;;;;;;16.5;7;;;;;;;-0.4;64.19141;938.8483;;;;
2022/03/11 06:04:21;;;;;;;20.6;6.8;;;;;;;-0.31;64.09375;938.8265;;;;
2022/03/11 06:06:46;;;;;;;13.8;6;;;;;;;-0.37;64.34082;938.8003;;;;
2022/03/11 06:09:14;;;;;;;21.4;6;;;;;;;-0.57;65.25488;938.8172;;;;
2022/03/11 06:11:39;;;;;;;22.1;13.5;;;;;;;-0.66;65.43164;938.8412;;;;
2022/03/11 06:14:05;;;;;;;11.9;6.3;;;;;;;-0.68;65.83984;938.8339;;;;
2022/03/11 06:16:38;;;;;;;19.4;8.9;;;;;;;0.01;64.46582;938.8434;;;;
2022/03/11 06:19:03;;;;;;;19;8.2;;;;;;;0.73;60.81445;938.769;;;;
2022/03/11 06:21:35;;;;;;;15.2;7.4;;;;;;;2.57;55.8125;938.8458;;;;
2022/03/11 06:24:04;;;;;;;14.4;7.5;;;;;;;3.16;53.25293;938.8058;;;;
2022/03/11 06:26:29;;;;;;;25.8;11.1;;;;;;;2.69;54.0459;938.8508;;;;
2022/03/11 06:28:54;;;;;;;111.9;29.4;;;;;;;3.27;52.58203;938.7803;;;;
2022/03/11 06:31:19;;;;;;;39.4;13.3;;;;;;;3.19;52.40332;938.7729;;;;
2022/03/11 06:33:47;;;;;;;16;8;;;;;;;3.32;51.75781;938.8256;;;;
2022/03/11 06:36:12;;;;;;;24;9.3;;;;;;;3.48;51.73145;938.8008;;;;
2022/03/11 06:38:39;;;;;;;19.1;7.5;;;;;;;3.65;50.57227;938.8326;;;;
2022/03/11 06:41:05;;;;;;;11.4;6.6;;;;;;;4.11;49.09766;938.8452;;;;
2022/03/11 06:43:31;;;;;;;13.8;6.4;;;;;;;4.11;49.54785;938.8011;;;;
2022/03/11 06:45:57;;;;;;;17.6;6.8;;;;;;;4.41;48.44629;938.6883;;;;
2022/03/11 06:48:23;;;;;;;19.7;7.3;;;;;;;4.75;48.29297;938.7996;;;;
2022/03/11 06:50:52;;;;;;;11.3;5.3;;;;;;;4.45;47.74023;938.7555;;;;
2022/03/11 06:53:17;;;;;;;14.6;5.5;;;;;;;4.66;48.21484;938.7903;;;;
2022/03/11 06:55:44;;;;;;;14.3;5.7;;;;;;;4.74;47.99805;938.7338;;;;
2022/03/11 06:58:09;;;;;;;10.5;4.6;;;;;;;5.08;46.52539;938.6818;;;;
2022/03/11 07:00:35;;;;;;;14;4.8;;;;;;;6.47;44.36914;938.7219;;;;
2022/03/11 07:03:02;;;;;;;13.4;5.2;;;;;;;6.25;43.70313;938.7067;;;;
2022/03/11 07:05:29;;;;;;;13.8;5.5;;;;;;;5.6;44.61914;938.7522;;;;
2022/03/11 07:07:55;;;;;;;15.8;6.4;;;;;;;4.94;46.92676;938.7891;;;;
2022/03/11 07:10:21;;;;;;;25.7;7.5;;;;;;;5.2;46.74219;938.8117;;;;
2022/03/11 07:12:46;;;;;;;23.5;7.2;;;;;;;5.43;46.37207;938.793;;;;
2022/03/11 07:15:15;;;;;;;20.7;6.8;;;;;;;6.12;45.24902;938.8127;;;;
2022/03/11 07:17:40;;;;;;;23.6;8;;;;;;;7.4;41.66699;938.742;;;;
2022/03/11 07:20:12;;;;;;;16.6;6.6;;;;;;;7.62;40.00879;938.7701;;;;
2022/03/11 07:22:47;;;;;;;25.1;7.7;;;;;;;7.45;41.33203;938.7585;;;;
2022/03/11 07:25:10;;;;;;;20.5;6.9;;;;;;;7.28;42.08496;938.7051;;;;
2022/03/11 07:27:36;;;;;;;20.1;7.9;;;;;;;7.4;41.39453;938.7033;;;;
2022/03/11 07:30:01;;;;;;;15.2;6.1;;;;;;;7.51;40.72461;938.7288;;;;
2022/03/11 07:32:27;;;;;;;23.2;9.4;;;;;;;9.42;38.09277;938.6646;;;;
2022/03/11 07:34:52;;;;;;;14.5;7.1;;;;;;;8.59;37.59961;938.5722;;;;
2022/03/11 07:37:22;;;;;;;25.9;9;;;;;;;9.45;37.40137;938.7111;;;;
2022/03/11 07:39:47;;;;;;;26.2;7.9;;;;;;;9.48;37.24512;938.7051;;;;
2022/03/11 07:42:14;;;;;;;19;7.3;;;;;;;9.87;35.4541;938.6122;;;;
2022/03/11 07:44:40;;;;;;;14.6;7.6;;;;;;;10.18;35.27441;938.613;;;;
2022/03/11 07:47:06;;;;;;;24;8.2;;;;;;;10.19;34.45313;938.563;;;;
2022/03/11 07:49:31;;;;;;;40.9;10;;;;;;;11.38;32.5;938.6163;;;;
2022/03/11 07:51:57;;;;;;;18.3;6.8;;;;;;;10.45;33.26465;938.6319;;;;
2022/03/11 07:54:22;;;;;;;18.5;6.4;;;;;;;11.41;32.19434;938.5889;;;;
2022/03/11 07:56:49;;;;;;;13.8;5.5;;;;;;;11.15;30.91699;938.5673;;;;
2022/03/11 07:59:14;;;;;;;9.8;4.4;;;;;;;11.28;30.73145;938.6124;;;;
2022/03/11 08:01:47;;;;;;;11.2;4.5;;;;;;;13.79;28.21777;938.4672;;;;
2022/03/11 08:04:16;;;;;;;17.5;5.1;;;;;;;15.5;25.55664;938.4584;;;;
2022/03/11 08:06:39;;;;;;;9.1;4.3;;;;;;;17.7;23.57227;938.4233;;;;
2022/03/11 08:09:04;;;;;;;10.4;4.2;;;;;;;17.43;23.43066;938.4322;;;;
2022/03/11 08:11:29;;;;;;;7.8;3;;;;;;;17.81;22.77832;938.4777;;;;
2022/03/11 08:13:57;;;;;;;5.9;2.9;;;;;;;18.91;20.86816;938.426;;;;
2022/03/11 08:16:33;;;;;;;14.1;6.3;;;;;;;19.02;25.29688;938.4431;;;;
2022/03/11 08:19:06;;;;;;;10;4.9;;;;;;;18.84;24.27441;938.502;;;;
2022/03/11 08:21:29;;;;;;;8.7;5.4;;;;;;;18;25.23828;938.5655;;;;
2022/03/11 08:23:56;;;;;;;10.2;5.5;;;;;;;17.47;26.30957;938.4894;;;;
2022/03/11 08:26:22;;;;;;;12.1;6;;;;;;;17.16;27.32324;938.5044;;;;
2022/03/11 08:28:49;;;;;;;9.3;6;;;;;;;18.23;25.92578;938.5577;;;;
2022/03/11 08:31:18;;;;;;;9.1;5.7;;;;;;;19.53;24.0791;938.5287;;;;
2022/03/11 08:33:46;;;;;;;9.1;6;;;;;;;19.62;24.13086;938.4299;;;;
2022/03/11 08:36:11;;;;;;;13.3;6.7;;;;;;;20.16;23.08594;938.4999;;;;
2022/03/11 08:38:39;;;;;;;10.1;7.2;;;;;;;20.78;23.0127;938.4277;;;;
2022/03/11 08:41:07;;;;;;;10.6;7.4;;;;;;;21.07;22.36133;938.4221;;;;
2022/03/11 08:43:29;;;;;;;11.2;7.3;;;;;;;20.98;22.62598;938.468;;;;
2022/03/11 08:45:57;;;;;;;12.8;7.6;;;;;;;20.96;22.76563;938.4014;;;;
2022/03/11 08:48:22;;;;;;;11.6;7.5;;;;;;;20.82;22.52441;938.4338;;;;
2022/03/11 08:50:49;;;;;;;12.3;7.6;;;;;;;22.04;21.48535;938.3889;;;;
2022/03/11 08:53:14;;;;;;;11;6.5;;;;;;;21.96;21.29395;938.348;;;;
2022/03/11 08:55:40;;;;;;;12.8;8.2;;;;;;;21.94;20.96484;938.3959;;;;
2022/03/11 08:58:06;;;;;;;9.4;7.3;;;;;;;20.3;22.3584;938.324;;;;
2022/03/11 09:00:32;;;;;;;13.1;7.8;;;;;;;19.95;23.06348;938.4064;;;;
2022/03/11 09:02:57;;;;;;;12.5;8.6;;;;;;;19.52;23.85742;938.3923;;;;
2022/03/11 09:05:27;;;;;;;12.4;8.4;;;;;;;19.99;23.2168;938.3611;;;;
2022/03/11 09:07:52;;;;;;;12;8.5;;;;;;;20.43;22.39941;938.3178;;;;
2022/03/11 09:10:22;;;;;;;11.7;8.3;;;;;;;19.03;24.14453;938.3567;;;;
2022/03/11 09:12:51;;;;;;;11.9;8.6;;;;;;;18.04;25.19434;938.3524;;;;
2022/03/11 09:15:16;;;;;;;12.3;9.1;;;;;;;17.83;25.25195;938.3472;;;;
2022/03/11 09:17:47;;;;;;;11.5;8.4;;;;;;;17.61;26.19141;938.2534;;;;
2022/03/11 09:20:12;;;;;;;12.9;8.4;;;;;;;18.05;25.4043;938.278;;;;
2022/03/11 09:22:36;;;;;;;12.6;8.2;;;;;;;17.82;26.25;938.2681;;;;
2022/03/11 09:25:04;;;;;;;13.8;9.1;;;;;;;18.18;25.8291;938.2159;;;;
2022/03/11 09:27:29;;;;;;;11.9;8.8;;;;;;;18.82;25.35449;938.2262;;;;
2022/03/11 09:29:56;;;;;;;14.6;10.2;;;;;;;18.84;25.72852;938.1936;;;;
2022/03/11 09:32:21;;;;;;;11.9;8.5;;;;;;;18.74;25.28125;938.1456;;;;
2022/03/11 09:34:47;;;;;;;12.4;9.4;;;;;;;18.23;26.69336;938.1047;;;;
2022/03/11 09:37:12;;;;;;;14.5;9.8;;;;;;;17.57;28.02148;938.1383;;;;
2022/03/11 09:39:38;;;;;;;14.1;9.7;;;;;;;17.27;28.1416;938.0683;;;;
2022/03/11 09:42:04;;;;;;;13.7;10;;;;;;;17.74;28.16016;938.0898;;;;
2022/03/11 09:44:30;;;;;;;14.4;10.3;;;;;;;17.51;28.33105;938.063;;;;
2022/03/11 09:46:55;;;;;;;14.1;9.8;;;;;;;17.39;28.57813;938.0662;;;;
2022/03/11 09:49:23;;;;;;;14.5;10.2;;;;;;;17.99;28.40918;938.034;;;;
2022/03/11 09:51:48;;;;;;;16.2;9.9;;;;;;;18.3;27.80078;938.0645;;;;
2022/03/11 09:54:15;;;;;;;16.9;10.4;;;;;;;17.59;29.33398;938.0099;;;;
2022/03/11 09:56:40;;;;;;;14.6;10.6;;;;;;;17.55;29.56348;938.0195;;;;
2022/03/11 09:59:05;;;;;;;14.5;10.4;;;;;;;17.09;30.1582;938.0082;;;;
2022/03/11 10:01:30;;;;;;;14.5;10.8;;;;;;;16.45;31.30664;937.9787;;;;
2022/03/11 10:03:57;;;;;;;13.9;10.3;;;;;;;16.54;31.34863;937.975;;;;
2022/03/11 10:06:22;;;;;;;15;10.2;;;;;;;17.03;30.74609;937.9536;;;;
2022/03/11 10:08:49;;;;;;;14.5;10.5;;;;;;;17.35;30.39648;937.976;;;;
2022/03/11 10:11:15;;;;;;;14.2;10.9;;;;;;;17.53;29.6084;937.9361;;;;
2022/03/11 10:13:40;;;;;;;15.6;10.4;;;;;;;16.94;30.19434;937.9048;;;;
2022/03/11 10:16:09;;;;;;;15.2;10.2;;;;;;;16.52;31.12695;937.878;;;;
2022/03/11 10:18:34;;;;;;;14.2;10.6;;;;;;;17.13;30.46289;937.9785;;;;
2022/03/11 10:20:59;;;;;;;14.5;10.6;;;;;;;17.75;28.92676;937.998;;;;
2022/03/11 10:23:27;;;;;;;13;10.8;;;;;;;17.7;29.17871;937.945;;;;
2022/03/11 10:25:52;;;;;;;14.6;10.8;;;;;;;16.77;30.29883;937.9305;;;;
2022/03/11 10:28:18;;;;;;;16;11.3;;;;;;;17.1;29.91602;937.8792;;;;
2022/03/11 10:30:43;;;;;;;16.4;11.1;;;;;;;17.66;29.33887;937.9358;;;;
2022/03/11 10:33:08;;;;;;;15.7;10.9;;;;;;;16.58;30.78418;937.8418;;;;
2022/03/11 10:35:36;;;;;;;15.5;11;;;;;;;16.47;31.13477;937.8546;;;;
2022/03/11 10:38:01;;;;;;;15.2;10.7;;;;;;;16.5;31.4375;937.798;;;;
2022/03/11 10:40:27;;;;;;;15.7;10.8;;;;;;;16.98;31.06641;937.8382;;;;
2022/03/11 10:42:52;;;;;;;18.2;10.7;;;;;;;17.83;29.24609;937.7969;;;;
2022/03/11 10:45:19;;;;;;;15.5;10;;;;;;;17.31;29.98828;937.8198;;;;
2022/03/11 10:47:46;;;;;;;17.1;11.1;;;;;;;17.52;29.09766;937.8235;;;;
2022/03/11 10:50:15;;;;;;;15.1;10.3;;;;;;;18.32;28.55762;937.7522;;;;
2022/03/11 10:52:39;;;;;;;14.1;10.2;;;;;;;18.35;28.59473;937.8024;;;;
2022/03/11 10:55:07;;;;;;;15.8;10.3;;;;;;;18.82;27.65918;937.7608;;;;
2022/03/11 10:57:32;;;;;;;15;10.3;;;;;;;18.44;28.44922;937.7371;;;;
2022/03/11 10:59:58;;;;;;;13.6;10.1;;;;;;;18.34;28.31543;937.6122;;;;
2022/03/11 11:02:23;;;;;;;14.2;10.5;;;;;;;17.78;28.97559;937.7074;;;;
2022/03/11 11:04:48;;;;;;;15.3;10;;;;;;;17.99;28.61816;937.7327;;;;
2022/03/11 11:07:17;;;;;;;15.1;10;;;;;;;18.04;28.52734;937.6619;;;;
2022/03/11 11:09:42;;;;;;;16;9.6;;;;;;;18.67;27.95215;937.635;;;;
2022/03/11 11:12:11;;;;;;;14.6;10.1;;;;;;;18.73;27.49121;937.5465;;;;
2022/03/11 11:14:34;;;;;;;14.9;10.2;;;;;;;18.92;27.15332;937.5817;;;;
2022/03/11 11:17:00;;;;;;;15.3;10.3;;;;;;;19.4;26.4375;937.5705;;;;
2022/03/11 11:19:28;;;;;;;14.8;9.8;;;;;;;18.91;26.91992;937.5159;;;;
2022/03/11 11:21:53;;;;;;;14.2;9.5;;;;;;;19.12;26.62988;937.4958;;;;
2022/03/11 11:24:22;;;;;;;12.7;8.8;;;;;;;18.74;26.97949;937.4752;;;;
2022/03/11 11:26:47;;;;;;;12.5;9.3;;;;;;;19.04;26.68359;937.4445;;;;
2022/03/11 11:29:15;;;;;;;13.5;9.1;;;;;;;19.05;27.33594;937.4241;;;;
2022/03/11 11:31:41;;;;;;;12.5;8.7;;;;;;;20.65;24.85254;937.4023;;;;
2022/03/11 11:34:09;;;;;;;11.2;8.4;;;;;;;20.98;25.10547;937.4188;;;;
2022/03/11 11:36:38;;;;;;;13.6;8.4;;;;;;;20.75;24.64844;937.4032;;;;
2022/03/11 11:39:04;;;;;;;12;8.1;;;;;;;21.75;23.6377;937.4026;;;;
2022/03/11 11:42:48;;;;;;;10.7;7.6;;;;;;;23.08;23.16895;937.3484;;;;
2022/03/11 11:45:09;;;;;;;9.7;7.6;;;;;;;24.26;20.29688;937.3476;;;;
2022/03/11 11:47:37;;;;;;;11.3;8.3;;;;;;;23.23;21.64844;937.2731;;;;
2022/03/11 11:50:02;;;;;;;10.9;7.7;;;;;;;23.89;21.2793;937.2048;;;;
2022/03/11 11:52:28;;;;;;;10.2;8;;;;;;;24.97;19.73828;937.1889;;;;
2022/03/11 11:54:55;;;;;;;10.3;7.7;;;;;;;24.88;19.46289;937.2028;;;;
2022/03/11 11:57:20;;;;;;;11.5;7.9;;;;;;;24.21;20.24707;937.2308;;;;
2022/03/11 11:59:46;;;;;;;10.6;7.6;;;;;;;25.09;19.7207;937.1736;;;;
2022/03/11 12:02:14;;;;;;;11.2;7.5;;;;;;;24.11;20.07813;937.0958;;;;
2022/03/11 12:04:41;;;;;;;10.8;8.2;;;;;;;24.3;20.02734;937.1907;;;;
2022/03/11 12:07:05;;;;;;;10.3;7.7;;;;;;;24.46;19.66992;937.1559;;;;
2022/03/11 12:09:32;;;;;;;9.4;7.2;;;;;;;23.27;20.35742;937.1649;;;;
2022/03/11 12:11:57;;;;;;;11.4;7.3;;;;;;;24.43;19.64453;937.1156;;;;
2022/03/11 12:14:24;;;;;;;11.3;7.4;;;;;;;22.84;21.24121;937.0438;;;;
2022/03/11 12:16:56;;;;;;;12.7;7.6;;;;;;;22.92;21.39844;937.0811;;;;
2022/03/11 12:19:24;;;;;;;10.8;7;;;;;;;23.53;20.08691;937.1013;;;;
2022/03/11 12:21:52;;;;;;;9.6;7.1;;;;;;;24.39;19.50098;936.9861;;;;
2022/03/11 12:24:17;;;;;;;13.3;7.7;;;;;;;24.12;19.6543;937.0712;;;;
2022/03/11 12:26:43;;;;;;;13.6;7.3;;;;;;;25.45;18.05957;937.0243;;;;
2022/03/11 12:29:08;;;;;;;12.8;7.5;;;;;;;25.63;17.85449;937.0016;;;;
2022/03/11 12:31:35;;;;;;;11.1;7.3;;;;;;;24.8;18.88184;936.9644;;;;
2022/03/11 12:34:07;;;;;;;11.4;7.3;;;;;;;23.46;20.03613;936.9281;;;;
2022/03/11 12:36:32;;;;;;;13;8;;;;;;;22.54;20.5;936.9197;;;;
2022/03/11 12:38:56;;;;;;;9.5;7.1;;;;;;;21.89;22.2627;936.8938;;;;
2022/03/11 12:41:21;;;;;;;9.9;6.9;;;;;;;21.57;22.60938;936.8049;;;;
2022/03/11 12:43:47;;;;;;;10.5;7.3;;;;;;;22.03;21.92969;936.9109;;;;
2022/03/11 12:46:16;;;;;;;11.4;7;;;;;;;23.79;19.61621;936.8445;;;;
2022/03/11 12:48:41;;;;;;;10.1;7.6;;;;;;;24.91;18.99316;936.8436;;;;
2022/03/11 12:51:07;;;;;;;10.6;7.3;;;;;;;24.69;19.47949;936.7953;;;;
2022/03/11 12:53:32;;;;;;;12.1;7.6;;;;;;;23.79;19.59277;936.7687;;;;
2022/03/11 12:55:57;;;;;;;13.5;8.2;;;;;;;24.03;20.20313;936.6789;;;;
2022/03/11 12:58:25;;;;;;;9.6;7.4;;;;;;;22.67;21.03418;936.7728;;;;
2022/03/11 13:00:49;;;;;;;9.4;7.3;;;;;;;23.53;20.00488;936.69;;;;
2022/03/11 13:03:14;;;;;;;13.3;7.8;;;;;;;23.78;19.92188;936.7211;;;;
2022/03/11 13:05:38;;;;;;;10.9;7.5;;;;;;;24.99;18.94922;936.6916;;;;
2022/03/11 13:08:04;;;;;;;11.4;7.3;;;;;;;24.36;19.06348;936.6409;;;;
2022/03/11 13:10:29;;;;;;;8.8;6.9;;;;;;;23.52;20.36914;936.627;;;;
2022/03/11 13:12:59;;;;;;;11.4;7.8;;;;;;;24.07;19.35742;936.5789;;;;
2022/03/11 13:15:26;;;;;;;11.1;7.7;;;;;;;24.75;18.73828;936.5969;;;;
2022/03/11 13:17:54;;;;;;;11;7.6;;;;;;;23.72;19.93066;936.5688;;;;
2022/03/11 13:20:23;;;;;;;11.6;7.5;;;;;;;24.21;19.01074;936.4941;;;;
2022/03/11 13:22:53;;;;;;;10.4;7.7;;;;;;;25.09;18.83594;936.5135;;;;
2022/03/11 13:28:48;;;;;;;10.7;7.4;;;;;;;25.44;17.99902;936.3753;;;;
2022/03/11 13:31:16;;;;;;;12.3;7.5;;;;;;;23.88;18.83105;936.3806;;;;
2022/03/11 13:33:41;;;;;;;12.7;7.4;;;;;;;22.91;20.31738;936.3513;;;;
2022/03/11 13:36:08;;;;;;;11.4;7.4;;;;;;;23.93;18.99902;936.4497;;;;
2022/03/11 13:38:34;;;;;;;10;7.2;;;;;;;25.08;18.04395;936.3999;;;;
2022/03/11 13:40:59;;;;;;;11.7;7.4;;;;;;;24.32;18.70898;936.3789;;;;
2022/03/11 13:43:24;;;;;;;10.6;7.1;;;;;;;25.51;17.69531;936.4092;;;;
2022/03/11 13:45:51;;;;;;;9.4;6.9;;;;;;;25.94;17.52344;936.4244;;;;
2022/03/11 13:48:17;;;;;;;10.6;6.8;;;;;;;26.41;16.97266;936.3755;;;;
2022/03/11 13:50:43;;;;;;;10.5;7.2;;;;;;;27.59;16.09277;936.29;;;;
2022/03/11 13:53:08;;;;;;;11.2;7.1;;;;;;;26.5;16.7168;936.2839;;;;
2022/03/11 13:55:33;;;;;;;9.1;6.3;;;;;;;24.51;18.56348;936.2589;;;;
2022/03/11 13:57:58;;;;;;;10.6;7;;;;;;;24.84;17.92871;936.3052;;;;
2022/03/11 14:00:26;;;;;;;12.2;7.3;;;;;;;24.86;18.10645;936.3152;;;;
2022/03/11 14:02:50;;;;;;;10.3;7.3;;;;;;;24.35;17.89746;936.2537;;;;
2022/03/11 14:05:19;;;;;;;12.5;6.9;;;;;;;24.69;18.27637;936.28;;;;
2022/03/11 14:07:42;;;;;;;11;6.9;;;;;;;24.78;18.05566;936.29;;;;
2022/03/11 14:10:11;;;;;;;10.3;7.1;;;;;;;24.39;18.54688;936.186;;;;
2022/03/11 14:12:38;;;;;;;11.3;7.7;;;;;;;23.41;19.46973;936.2268;;;;
2022/03/11 14:15:12;;;;;;;11.5;7.5;;;;;;;23.59;19.31348;936.2203;;;;
2022/03/11 14:17:39;;;;;;;10.2;7.1;;;;;;;24.12;18.95996;936.1646;;;;
2022/03/11 14:20:09;;;;;;;11.3;7.4;;;;;;;22.92;20.22363;936.2424;;;;
2022/03/11 14:22:34;;;;;;;11.3;7.6;;;;;;;23.43;19.70605;936.2378;;;;
2022/03/11 14:24:59;;;;;;;11.1;7.4;;;;;;;23.51;19.8623;936.1853;;;;
2022/03/11 14:27:29;;;;;;;12.5;7;;;;;;;23.45;19.83594;936.0734;;;;
2022/03/11 14:29:54;;;;;;;11.5;7.3;;;;;;;23.09;20.11426;936.1128;;;;
2022/03/11 14:32:23;;;;;;;10.4;7.4;;;;;;;21.87;21.71094;936.13;;;;